sensor_id;sensor_type;location;lat;lon;timestamp;P1;durP1;ratioP1;P2;durP2;ratioP2
19946;SDS011;10135;50.702;7.276;2022-08-19T00:01:19;9.52;;;8.55;;
19946;SDS011;10135;50.702;7.276;2022-08-19T00:03:21;8.68;;;7.88;;
19946;SDS011;10135;50.702;7.276;2022-08-19T00:05:21;9.65;;;8.75;;
19946;SDS011;10135;50.702;7.276;2022-08-19T00:07:23;10.38;;;8.48;;
19946;SDS011;10135;50.702;7.276;2022-08-19T00:09:23;8.70;;;7.85;;
19946;SDS011;10135;50.702;7.276;2022-08-19T00:11:25;9.82;;;8.82;;
19946;SDS011;10135;50.702;7.276;2022-08-19T00:13:27;9.10;;;8.20;;
19946;SDS011;10135;50.702;7.276;2022-08-19T00:15:28;10.50;;;8.55;;
19946;SDS011;10135;50.702;7.276;2022-08-19T00:17:29;8.95;;;8.15;;
19946;SDS011;10135;50.702;7.276;2022-08-19T00:19:30;10.02;;;9.02;;
19946;SDS011;10135;50.702;7.276;2022-08-19T00:21:31;9.18;;;8.27;;
19946;SDS011;10135;50.702;7.276;2022-08-19T00:23:31;10.05;;;7.90;;
19946;SDS011;10135;50.702;7.276;2022-08-19T00:25:34;9.15;;;8.13;;
19946;SDS011;10135;50.702;7.276;2022-08-19T00:27:36;10.38;;;8.45;;
19946;SDS011;10135;50.702;7.276;2022-08-19T00:29:37;11.32;;;8.70;;
19946;SDS011;10135;50.702;7.276;2022-08-19T00:31:38;8.95;;;8.10;;
19946;SDS011;10135;50.702;7.276;2022-08-19T00:33:41;8.93;;;8.13;;
19946;SDS011;10135;50.702;7.276;2022-08-19T00:35:42;9.80;;;8.45;;
19946;SDS011;10135;50.702;7.276;2022-08-19T00:37:43;8.80;;;8.00;;
19946;SDS011;10135;50.702;7.276;2022-08-19T00:39:44;8.95;;;7.40;;
19946;SDS011;10135;50.702;7.276;2022-08-19T00:41:45;9.43;;;8.02;;
19946;SDS011;10135;50.702;7.276;2022-08-19T00:44:00;9.35;;;8.05;;
19946;SDS011;10135;50.702;7.276;2022-08-19T00:46:04;9.02;;;8.15;;
19946;SDS011;10135;50.702;7.276;2022-08-19T00:48:05;9.32;;;8.43;;
19946;SDS011;10135;50.702;7.276;2022-08-19T00:50:06;11.60;;;8.40;;
19946;SDS011;10135;50.702;7.276;2022-08-19T00:52:12;9.35;;;8.30;;
19946;SDS011;10135;50.702;7.276;2022-08-19T00:54:18;8.43;;;7.65;;
19946;SDS011;10135;50.702;7.276;2022-08-19T00:56:21;9.90;;;8.27;;
19946;SDS011;10135;50.702;7.276;2022-08-19T00:58:23;9.00;;;8.10;;
19946;SDS011;10135;50.702;7.276;2022-08-19T01:00:29;10.88;;;8.73;;
19946;SDS011;10135;50.702;7.276;2022-08-19T01:02:31;10.73;;;8.27;;
19946;SDS011;10135;50.702;7.276;2022-08-19T01:04:32;9.05;;;8.10;;
19946;SDS011;10135;50.702;7.276;2022-08-19T01:06:33;12.63;;;8.55;;
19946;SDS011;10135;50.702;7.276;2022-08-19T01:08:37;8.90;;;7.47;;
19946;SDS011;10135;50.702;7.276;2022-08-19T01:10:52;9.82;;;7.90;;
19946;SDS011;10135;50.702;7.276;2022-08-19T01:12:58;9.20;;;7.63;;
19946;SDS011;10135;50.702;7.276;2022-08-19T01:15:01;8.65;;;7.88;;
19946;SDS011;10135;50.702;7.276;2022-08-19T01:17:02;9.07;;;8.18;;
19946;SDS011;10135;50.702;7.276;2022-08-19T01:19:03;9.65;;;7.78;;
19946;SDS011;10135;50.702;7.276;2022-08-19T01:21:31;9.57;;;7.47;;
19946;SDS011;10135;50.702;7.276;2022-08-19T01:23:48;8.15;;;7.45;;
19946;SDS011;10135;50.702;7.276;2022-08-19T01:25:50;8.35;;;7.55;;
19946;SDS011;10135;50.702;7.276;2022-08-19T01:27:53;8.48;;;7.78;;
19946;SDS011;10135;50.702;7.276;2022-08-19T01:29:54;8.52;;;7.60;;
19946;SDS011;10135;50.702;7.276;2022-08-19T01:31:55;8.75;;;7.95;;
19946;SDS011;10135;50.702;7.276;2022-08-19T01:33:56;8.38;;;7.65;;
19946;SDS011;10135;50.702;7.276;2022-08-19T01:36:06;8.48;;;7.68;;
19946;SDS011;10135;50.702;7.276;2022-08-19T01:38:23;8.88;;;7.97;;
19946;SDS011;10135;50.702;7.276;2022-08-19T01:40:28;8.57;;;7.78;;
19946;SDS011;10135;50.702;7.276;2022-08-19T01:42:32;9.50;;;8.05;;
19946;SDS011;10135;50.702;7.276;2022-08-19T01:44:33;9.05;;;8.02;;
19946;SDS011;10135;50.702;7.276;2022-08-19T01:46:36;8.52;;;7.63;;
19946;SDS011;10135;50.702;7.276;2022-08-19T01:48:38;8.40;;;7.60;;
19946;SDS011;10135;50.702;7.276;2022-08-19T01:50:41;9.38;;;7.70;;
19946;SDS011;10135;50.702;7.276;2022-08-19T01:52:43;9.40;;;7.32;;
19946;SDS011;10135;50.702;7.276;2022-08-19T01:54:44;7.93;;;7.22;;
19946;SDS011;10135;50.702;7.276;2022-08-19T01:56:45;8.60;;;7.63;;
19946;SDS011;10135;50.702;7.276;2022-08-19T01:58:50;10.00;;;8.05;;
19946;SDS011;10135;50.702;7.276;2022-08-19T02:01:06;8.35;;;7.65;;
19946;SDS011;10135;50.702;7.276;2022-08-19T02:03:07;8.45;;;7.55;;
19946;SDS011;10135;50.702;7.276;2022-08-19T02:05:10;8.43;;;7.63;;
19946;SDS011;10135;50.702;7.276;2022-08-19T02:07:12;8.32;;;7.55;;
19946;SDS011;10135;50.702;7.276;2022-08-19T02:09:12;10.98;;;7.93;;
19946;SDS011;10135;50.702;7.276;2022-08-19T02:11:23;8.50;;;7.35;;
19946;SDS011;10135;50.702;7.276;2022-08-19T02:13:31;10.15;;;7.47;;
19946;SDS011;10135;50.702;7.276;2022-08-19T02:15:34;8.18;;;6.88;;
19946;SDS011;10135;50.702;7.276;2022-08-19T02:17:34;8.57;;;7.60;;
19946;SDS011;10135;50.702;7.276;2022-08-19T02:19:35;7.90;;;7.20;;
19946;SDS011;10135;50.702;7.276;2022-08-19T02:21:36;7.82;;;7.13;;
19946;SDS011;10135;50.702;7.276;2022-08-19T02:23:37;8.05;;;7.32;;
19946;SDS011;10135;50.702;7.276;2022-08-19T02:25:38;7.75;;;7.07;;
19946;SDS011;10135;50.702;7.276;2022-08-19T02:27:40;8.55;;;7.32;;
19946;SDS011;10135;50.702;7.276;2022-08-19T02:29:42;9.95;;;7.50;;
19946;SDS011;10135;50.702;7.276;2022-08-19T02:31:45;8.00;;;7.30;;
19946;SDS011;10135;50.702;7.276;2022-08-19T02:33:46;7.40;;;6.70;;
19946;SDS011;10135;50.702;7.276;2022-08-19T02:35:47;8.07;;;7.28;;
19946;SDS011;10135;50.702;7.276;2022-08-19T02:37:48;9.70;;;7.22;;
19946;SDS011;10135;50.702;7.276;2022-08-19T02:40:08;8.00;;;7.30;;
19946;SDS011;10135;50.702;7.276;2022-08-19T02:42:09;7.72;;;7.03;;
19946;SDS011;10135;50.702;7.276;2022-08-19T02:44:10;8.57;;;7.65;;
19946;SDS011;10135;50.702;7.276;2022-08-19T02:46:22;7.43;;;6.72;;
19946;SDS011;10135;50.702;7.276;2022-08-19T02:48:27;8.40;;;7.55;;
19946;SDS011;10135;50.702;7.276;2022-08-19T02:50:27;7.97;;;7.18;;
19946;SDS011;10135;50.702;7.276;2022-08-19T02:52:28;8.18;;;7.38;;
19946;SDS011;10135;50.702;7.276;2022-08-19T02:54:29;8.00;;;7.20;;
19946;SDS011;10135;50.702;7.276;2022-08-19T02:56:30;8.50;;;7.60;;
19946;SDS011;10135;50.702;7.276;2022-08-19T02:58:31;8.02;;;6.93;;
19946;SDS011;10135;50.702;7.276;2022-08-19T03:00:32;8.45;;;7.65;;
19946;SDS011;10135;50.702;7.276;2022-08-19T03:02:32;8.57;;;7.55;;
19946;SDS011;10135;50.702;7.276;2022-08-19T03:04:33;8.15;;;7.35;;
19946;SDS011;10135;50.702;7.276;2022-08-19T03:06:37;7.97;;;7.20;;
19946;SDS011;10135;50.702;7.276;2022-08-19T03:08:41;9.43;;;7.57;;
19946;SDS011;10135;50.702;7.276;2022-08-19T03:10:46;8.13;;;7.43;;
19946;SDS011;10135;50.702;7.276;2022-08-19T03:12:47;7.63;;;6.90;;
19946;SDS011;10135;50.702;7.276;2022-08-19T03:14:48;7.82;;;7.00;;
19946;SDS011;10135;50.702;7.276;2022-08-19T03:16:50;8.13;;;7.35;;
19946;SDS011;10135;50.702;7.276;2022-08-19T03:18:52;9.48;;;7.47;;
19946;SDS011;10135;50.702;7.276;2022-08-19T03:20:55;9.80;;;7.18;;
19946;SDS011;10135;50.702;7.276;2022-08-19T03:22:56;7.60;;;6.90;;
19946;SDS011;10135;50.702;7.276;2022-08-19T03:24:57;7.90;;;7.20;;
19946;SDS011;10135;50.702;7.276;2022-08-19T03:26:58;8.43;;;7.07;;
19946;SDS011;10135;50.702;7.276;2022-08-19T03:29:03;8.73;;;7.22;;
19946;SDS011;10135;50.702;7.276;2022-08-19T03:31:06;8.70;;;7.90;;
19946;SDS011;10135;50.702;7.276;2022-08-19T03:33:12;9.27;;;7.47;;
19946;SDS011;10135;50.702;7.276;2022-08-19T03:35:13;8.27;;;7.47;;
19946;SDS011;10135;50.702;7.276;2022-08-19T03:37:13;8.38;;;7.57;;
19946;SDS011;10135;50.702;7.276;2022-08-19T03:39:15;8.27;;;7.50;;
19946;SDS011;10135;50.702;7.276;2022-08-19T03:41:18;8.23;;;7.45;;
19946;SDS011;10135;50.702;7.276;2022-08-19T03:43:22;7.93;;;7.15;;
19946;SDS011;10135;50.702;7.276;2022-08-19T03:45:24;8.07;;;7.30;;
19946;SDS011;10135;50.702;7.276;2022-08-19T03:47:25;8.48;;;7.53;;
19946;SDS011;10135;50.702;7.276;2022-08-19T03:49:26;7.95;;;7.15;;
19946;SDS011;10135;50.702;7.276;2022-08-19T03:51:32;8.70;;;7.65;;
19946;SDS011;10135;50.702;7.276;2022-08-19T03:53:37;9.18;;;8.27;;
19946;SDS011;10135;50.702;7.276;2022-08-19T03:55:39;8.50;;;7.70;;
19946;SDS011;10135;50.702;7.276;2022-08-19T03:57:41;9.20;;;7.85;;
19946;SDS011;10135;50.702;7.276;2022-08-19T03:59:41;11.68;;;8.32;;
19946;SDS011;10135;50.702;7.276;2022-08-19T04:01:43;8.18;;;7.38;;
19946;SDS011;10135;50.702;7.276;2022-08-19T04:03:44;9.95;;;8.38;;
19946;SDS011;10135;50.702;7.276;2022-08-19T04:05:46;8.73;;;7.82;;
19946;SDS011;10135;50.702;7.276;2022-08-19T04:07:47;9.13;;;7.75;;
19946;SDS011;10135;50.702;7.276;2022-08-19T04:09:48;11.40;;;7.43;;
19946;SDS011;10135;50.702;7.276;2022-08-19T04:11:50;10.70;;;7.78;;
19946;SDS011;10135;50.702;7.276;2022-08-19T04:13:55;8.95;;;8.05;;
19946;SDS011;10135;50.702;7.276;2022-08-19T04:15:56;9.70;;;8.20;;
19946;SDS011;10135;50.702;7.276;2022-08-19T04:17:56;8.63;;;7.72;;
19946;SDS011;10135;50.702;7.276;2022-08-19T04:19:57;8.85;;;7.95;;
19946;SDS011;10135;50.702;7.276;2022-08-19T04:21:58;8.55;;;7.65;;
19946;SDS011;10135;50.702;7.276;2022-08-19T04:23:58;9.52;;;7.97;;
19946;SDS011;10135;50.702;7.276;2022-08-19T04:25:59;9.50;;;8.15;;
19946;SDS011;10135;50.702;7.276;2022-08-19T04:28:00;9.77;;;8.70;;
19946;SDS011;10135;50.702;7.276;2022-08-19T04:30:01;10.73;;;7.68;;
19946;SDS011;10135;50.702;7.276;2022-08-19T04:32:02;10.50;;;8.30;;
19946;SDS011;10135;50.702;7.276;2022-08-19T04:34:06;9.23;;;8.23;;
19946;SDS011;10135;50.702;7.276;2022-08-19T04:36:17;9.75;;;8.73;;
19946;SDS011;10135;50.702;7.276;2022-08-19T04:38:23;9.23;;;8.25;;
19946;SDS011;10135;50.702;7.276;2022-08-19T04:40:24;8.75;;;7.95;;
19946;SDS011;10135;50.702;7.276;2022-08-19T04:42:43;9.68;;;8.77;;
19946;SDS011;10135;50.702;7.276;2022-08-19T04:44:44;9.45;;;8.30;;
19946;SDS011;10135;50.702;7.276;2022-08-19T04:46:45;9.43;;;8.35;;
19946;SDS011;10135;50.702;7.276;2022-08-19T04:48:48;11.93;;;8.45;;
19946;SDS011;10135;50.702;7.276;2022-08-19T04:50:49;9.50;;;8.50;;
19946;SDS011;10135;50.702;7.276;2022-08-19T04:52:51;13.77;;;9.25;;
19946;SDS011;10135;50.702;7.276;2022-08-19T04:54:52;9.63;;;8.60;;
19946;SDS011;10135;50.702;7.276;2022-08-19T04:56:55;11.25;;;9.25;;
19946;SDS011;10135;50.702;7.276;2022-08-19T04:58:56;11.45;;;9.20;;
19946;SDS011;10135;50.702;7.276;2022-08-19T05:00:57;12.35;;;9.05;;
19946;SDS011;10135;50.702;7.276;2022-08-19T05:02:59;11.45;;;9.38;;
19946;SDS011;10135;50.702;7.276;2022-08-19T05:05:00;12.93;;;9.60;;
19946;SDS011;10135;50.702;7.276;2022-08-19T05:07:01;11.23;;;10.05;;
19946;SDS011;10135;50.702;7.276;2022-08-19T05:09:03;12.57;;;9.68;;
19946;SDS011;10135;50.702;7.276;2022-08-19T05:11:14;11.18;;;9.43;;
19946;SDS011;10135;50.702;7.276;2022-08-19T05:13:28;10.63;;;9.18;;
19946;SDS011;10135;50.702;7.276;2022-08-19T05:15:29;12.20;;;9.15;;
19946;SDS011;10135;50.702;7.276;2022-08-19T05:17:31;10.68;;;9.15;;
19946;SDS011;10135;50.702;7.276;2022-08-19T05:19:31;13.35;;;11.07;;
19946;SDS011;10135;50.702;7.276;2022-08-19T05:21:51;14.95;;;11.52;;
19946;SDS011;10135;50.702;7.276;2022-08-19T05:24:11;14.63;;;11.80;;
19946;SDS011;10135;50.702;7.276;2022-08-19T05:26:12;14.55;;;11.63;;
19946;SDS011;10135;50.702;7.276;2022-08-19T05:28:13;16.15;;;12.13;;
19946;SDS011;10135;50.702;7.276;2022-08-19T05:30:13;19.83;;;12.77;;
19946;SDS011;10135;50.702;7.276;2022-08-19T05:32:14;15.77;;;12.50;;
19946;SDS011;10135;50.702;7.276;2022-08-19T05:34:16;15.98;;;12.65;;
19946;SDS011;10135;50.702;7.276;2022-08-19T05:36:21;17.35;;;13.07;;
19946;SDS011;10135;50.702;7.276;2022-08-19T05:38:22;16.65;;;13.65;;
19946;SDS011;10135;50.702;7.276;2022-08-19T05:40:22;16.15;;;13.50;;
19946;SDS011;10135;50.702;7.276;2022-08-19T05:42:23;16.55;;;13.60;;
19946;SDS011;10135;50.702;7.276;2022-08-19T05:44:26;17.30;;;13.15;;
19946;SDS011;10135;50.702;7.276;2022-08-19T05:46:31;17.00;;;13.75;;
19946;SDS011;10135;50.702;7.276;2022-08-19T05:48:33;17.33;;;14.07;;
19946;SDS011;10135;50.702;7.276;2022-08-19T05:50:35;16.25;;;14.00;;
19946;SDS011;10135;50.702;7.276;2022-08-19T05:52:36;17.05;;;14.02;;
19946;SDS011;10135;50.702;7.276;2022-08-19T05:54:38;18.88;;;14.57;;
19946;SDS011;10135;50.702;7.276;2022-08-19T05:56:41;16.45;;;13.55;;
19946;SDS011;10135;50.702;7.276;2022-08-19T05:58:43;18.15;;;14.18;;
19946;SDS011;10135;50.702;7.276;2022-08-19T06:00:45;16.38;;;13.82;;
19946;SDS011;10135;50.702;7.276;2022-08-19T06:02:46;15.75;;;13.32;;
19946;SDS011;10135;50.702;7.276;2022-08-19T06:04:46;20.35;;;15.25;;
19946;SDS011;10135;50.702;7.276;2022-08-19T06:06:48;17.98;;;14.85;;
19946;SDS011;10135;50.702;7.276;2022-08-19T06:08:51;20.13;;;14.77;;
19946;SDS011;10135;50.702;7.276;2022-08-19T06:10:52;19.92;;;14.02;;
19946;SDS011;10135;50.702;7.276;2022-08-19T06:12:53;20.08;;;14.32;;
19946;SDS011;10135;50.702;7.276;2022-08-19T06:14:55;18.30;;;13.73;;
19946;SDS011;10135;50.702;7.276;2022-08-19T06:16:56;16.33;;;13.27;;
19946;SDS011;10135;50.702;7.276;2022-08-19T06:19:03;17.42;;;14.15;;
19946;SDS011;10135;50.702;7.276;2022-08-19T06:21:14;17.30;;;14.05;;
19946;SDS011;10135;50.702;7.276;2022-08-19T06:23:15;19.90;;;14.00;;
19946;SDS011;10135;50.702;7.276;2022-08-19T06:25:16;18.27;;;13.50;;
19946;SDS011;10135;50.702;7.276;2022-08-19T06:27:17;17.90;;;14.07;;
19946;SDS011;10135;50.702;7.276;2022-08-19T06:29:20;16.48;;;13.45;;
19946;SDS011;10135;50.702;7.276;2022-08-19T06:31:25;18.63;;;13.70;;
19946;SDS011;10135;50.702;7.276;2022-08-19T06:33:29;17.27;;;13.90;;
19946;SDS011;10135;50.702;7.276;2022-08-19T06:35:29;17.02;;;13.77;;
19946;SDS011;10135;50.702;7.276;2022-08-19T06:37:30;17.00;;;13.55;;
19946;SDS011;10135;50.702;7.276;2022-08-19T06:39:32;17.75;;;14.20;;
19946;SDS011;10135;50.702;7.276;2022-08-19T06:41:39;18.73;;;13.88;;
19946;SDS011;10135;50.702;7.276;2022-08-19T06:43:43;19.73;;;13.95;;
19946;SDS011;10135;50.702;7.276;2022-08-19T06:45:44;19.33;;;14.77;;
19946;SDS011;10135;50.702;7.276;2022-08-19T06:47:46;19.83;;;14.95;;
19946;SDS011;10135;50.702;7.276;2022-08-19T06:49:48;18.58;;;14.85;;
19946;SDS011;10135;50.702;7.276;2022-08-19T06:51:49;19.67;;;15.40;;
19946;SDS011;10135;50.702;7.276;2022-08-19T06:53:52;21.02;;;15.18;;
19946;SDS011;10135;50.702;7.276;2022-08-19T06:55:54;20.88;;;15.38;;
19946;SDS011;10135;50.702;7.276;2022-08-19T06:58:03;20.48;;;15.20;;
19946;SDS011;10135;50.702;7.276;2022-08-19T07:00:05;21.92;;;15.30;;
19946;SDS011;10135;50.702;7.276;2022-08-19T07:02:09;20.48;;;15.48;;
19946;SDS011;10135;50.702;7.276;2022-08-19T07:04:10;25.08;;;15.93;;
19946;SDS011;10135;50.702;7.276;2022-08-19T07:06:13;22.20;;;15.02;;
19946;SDS011;10135;50.702;7.276;2022-08-19T07:08:17;21.23;;;16.08;;
19946;SDS011;10135;50.702;7.276;2022-08-19T07:10:18;21.55;;;16.10;;
19946;SDS011;10135;50.702;7.276;2022-08-19T07:12:19;20.17;;;15.30;;
19946;SDS011;10135;50.702;7.276;2022-08-19T07:14:21;23.05;;;15.80;;
19946;SDS011;10135;50.702;7.276;2022-08-19T07:16:26;20.38;;;15.60;;
19946;SDS011;10135;50.702;7.276;2022-08-19T07:18:27;21.30;;;15.40;;
19946;SDS011;10135;50.702;7.276;2022-08-19T07:20:28;23.95;;;16.60;;
19946;SDS011;10135;50.702;7.276;2022-08-19T07:22:28;18.88;;;15.05;;
19946;SDS011;10135;50.702;7.276;2022-08-19T07:24:30;21.48;;;15.60;;
19946;SDS011;10135;50.702;7.276;2022-08-19T07:26:33;20.73;;;15.85;;
19946;SDS011;10135;50.702;7.276;2022-08-19T07:28:40;21.88;;;15.18;;
19946;SDS011;10135;50.702;7.276;2022-08-19T07:30:43;23.95;;;15.75;;
19946;SDS011;10135;50.702;7.276;2022-08-19T07:32:43;21.95;;;16.63;;
19946;SDS011;10135;50.702;7.276;2022-08-19T07:34:44;24.90;;;16.23;;
19946;SDS011;10135;50.702;7.276;2022-08-19T07:36:45;23.98;;;17.00;;
19946;SDS011;10135;50.702;7.276;2022-08-19T07:38:47;22.13;;;16.05;;
19946;SDS011;10135;50.702;7.276;2022-08-19T07:40:49;23.38;;;15.93;;
19946;SDS011;10135;50.702;7.276;2022-08-19T07:42:51;25.75;;;18.05;;
19946;SDS011;10135;50.702;7.276;2022-08-19T07:44:52;22.98;;;17.48;;
19946;SDS011;10135;50.702;7.276;2022-08-19T07:46:53;25.67;;;16.55;;
19946;SDS011;10135;50.702;7.276;2022-08-19T07:48:57;24.42;;;17.85;;
19946;SDS011;10135;50.702;7.276;2022-08-19T07:50:59;22.88;;;17.02;;
19946;SDS011;10135;50.702;7.276;2022-08-19T07:53:03;25.05;;;17.15;;
19946;SDS011;10135;50.702;7.276;2022-08-19T07:55:04;23.58;;;16.35;;
19946;SDS011;10135;50.702;7.276;2022-08-19T07:57:08;24.35;;;16.65;;
19946;SDS011;10135;50.702;7.276;2022-08-19T07:59:08;26.85;;;16.98;;
19946;SDS011;10135;50.702;7.276;2022-08-19T08:01:14;24.92;;;17.13;;
19946;SDS011;10135;50.702;7.276;2022-08-19T08:03:20;23.13;;;16.13;;
19946;SDS011;10135;50.702;7.276;2022-08-19T08:05:42;21.90;;;16.05;;
19946;SDS011;10135;50.702;7.276;2022-08-19T08:08:02;23.17;;;16.63;;
19946;SDS011;10135;50.702;7.276;2022-08-19T08:10:21;20.73;;;15.90;;
19946;SDS011;10135;50.702;7.276;2022-08-19T08:12:23;23.80;;;15.77;;
19946;SDS011;10135;50.702;7.276;2022-08-19T08:14:32;23.13;;;16.15;;
19946;SDS011;10135;50.702;7.276;2022-08-19T08:16:38;23.83;;;15.60;;
19946;SDS011;10135;50.702;7.276;2022-08-19T08:18:39;21.58;;;15.20;;
19946;SDS011;10135;50.702;7.276;2022-08-19T08:20:42;18.05;;;13.65;;
19946;SDS011;10135;50.702;7.276;2022-08-19T08:22:43;22.75;;;15.15;;
19946;SDS011;10135;50.702;7.276;2022-08-19T08:25:09;21.90;;;14.07;;
19946;SDS011;10135;50.702;7.276;2022-08-19T08:27:15;19.13;;;13.85;;
19946;SDS011;10135;50.702;7.276;2022-08-19T08:29:16;21.40;;;13.77;;
19946;SDS011;10135;50.702;7.276;2022-08-19T08:31:17;18.67;;;14.13;;
19946;SDS011;10135;50.702;7.276;2022-08-19T08:33:19;21.10;;;14.65;;
19946;SDS011;10135;50.702;7.276;2022-08-19T08:35:23;21.88;;;14.30;;
19946;SDS011;10135;50.702;7.276;2022-08-19T08:37:24;19.73;;;14.15;;
19946;SDS011;10135;50.702;7.276;2022-08-19T08:39:25;20.13;;;13.65;;
19946;SDS011;10135;50.702;7.276;2022-08-19T08:44:02;18.15;;;13.18;;
19946;SDS011;10135;50.702;7.276;2022-08-19T08:46:05;16.20;;;12.82;;
19946;SDS011;10135;50.702;7.276;2022-08-19T08:48:42;18.25;;;13.50;;
19946;SDS011;10135;50.702;7.276;2022-08-19T08:50:55;17.85;;;12.50;;
19946;SDS011;10135;50.702;7.276;2022-08-19T08:52:58;17.67;;;13.48;;
19946;SDS011;10135;50.702;7.276;2022-08-19T08:54:59;20.02;;;14.35;;
19946;SDS011;10135;50.702;7.276;2022-08-19T08:57:12;19.63;;;14.05;;
19946;SDS011;10135;50.702;7.276;2022-08-19T08:59:34;17.88;;;14.00;;
19946;SDS011;10135;50.702;7.276;2022-08-19T09:01:38;19.35;;;15.10;;
19946;SDS011;10135;50.702;7.276;2022-08-19T09:03:40;22.38;;;14.43;;
19946;SDS011;10135;50.702;7.276;2022-08-19T09:08:40;18.63;;;13.60;;
19946;SDS011;10135;50.702;7.276;2022-08-19T09:10:51;21.27;;;14.43;;
19946;SDS011;10135;50.702;7.276;2022-08-19T09:13:03;17.17;;;13.73;;
19946;SDS011;10135;50.702;7.276;2022-08-19T09:15:25;18.95;;;14.32;;
19946;SDS011;10135;50.702;7.276;2022-08-19T09:17:39;17.25;;;12.77;;
19946;SDS011;10135;50.702;7.276;2022-08-19T09:19:48;15.82;;;12.57;;
19946;SDS011;10135;50.702;7.276;2022-08-19T09:21:51;15.43;;;11.60;;
19946;SDS011;10135;50.702;7.276;2022-08-19T09:23:52;16.45;;;12.23;;
19946;SDS011;10135;50.702;7.276;2022-08-19T09:25:53;15.07;;;11.88;;
19946;SDS011;10135;50.702;7.276;2022-08-19T09:27:54;16.20;;;12.15;;
19946;SDS011;10135;50.702;7.276;2022-08-19T09:29:56;14.85;;;11.95;;
19946;SDS011;10135;50.702;7.276;2022-08-19T09:31:57;16.67;;;12.10;;
19946;SDS011;10135;50.702;7.276;2022-08-19T09:33:58;13.93;;;11.50;;
19946;SDS011;10135;50.702;7.276;2022-08-19T09:36:03;13.13;;;10.88;;
19946;SDS011;10135;50.702;7.276;2022-08-19T09:38:08;12.95;;;10.07;;
19946;SDS011;10135;50.702;7.276;2022-08-19T09:40:08;14.02;;;10.73;;
19946;SDS011;10135;50.702;7.276;2022-08-19T09:42:11;14.70;;;10.80;;
19946;SDS011;10135;50.702;7.276;2022-08-19T09:44:13;16.45;;;10.73;;
19946;SDS011;10135;50.702;7.276;2022-08-19T09:46:14;13.48;;;10.38;;
19946;SDS011;10135;50.702;7.276;2022-08-19T09:48:16;13.00;;;10.82;;
19946;SDS011;10135;50.702;7.276;2022-08-19T09:50:17;15.77;;;10.57;;
19946;SDS011;10135;50.702;7.276;2022-08-19T09:52:18;10.73;;;9.10;;
19946;SDS011;10135;50.702;7.276;2022-08-19T09:54:18;14.20;;;10.35;;
19946;SDS011;10135;50.702;7.276;2022-08-19T09:56:20;12.45;;;10.52;;
19946;SDS011;10135;50.702;7.276;2022-08-19T09:58:22;17.25;;;10.93;;
19946;SDS011;10135;50.702;7.276;2022-08-19T10:00:27;11.95;;;10.15;;
19946;SDS011;10135;50.702;7.276;2022-08-19T10:02:30;16.88;;;12.40;;
19946;SDS011;10135;50.702;7.276;2022-08-19T10:04:31;17.13;;;12.00;;
19946;SDS011;10135;50.702;7.276;2022-08-19T10:06:50;15.05;;;11.85;;
19946;SDS011;10135;50.702;7.276;2022-08-19T10:08:51;14.52;;;11.45;;
19946;SDS011;10135;50.702;7.276;2022-08-19T10:10:52;20.73;;;13.20;;
19946;SDS011;10135;50.702;7.276;2022-08-19T10:12:55;16.92;;;10.85;;
19946;SDS011;10135;50.702;7.276;2022-08-19T10:14:55;18.23;;;11.13;;
19946;SDS011;10135;50.702;7.276;2022-08-19T10:16:56;14.80;;;11.20;;
19946;SDS011;10135;50.702;7.276;2022-08-19T10:18:57;14.95;;;11.02;;
19946;SDS011;10135;50.702;7.276;2022-08-19T10:21:41;12.88;;;11.38;;
19946;SDS011;10135;50.702;7.276;2022-08-19T10:23:26;13.05;;;10.23;;
19946;SDS011;10135;50.702;7.276;2022-08-19T10:25:29;14.20;;;10.73;;
19946;SDS011;10135;50.702;7.276;2022-08-19T10:27:33;15.15;;;12.25;;
19946;SDS011;10135;50.702;7.276;2022-08-19T10:29:34;17.05;;;12.98;;
19946;SDS011;10135;50.702;7.276;2022-08-19T10:31:35;18.48;;;14.15;;
19946;SDS011;10135;50.702;7.276;2022-08-19T10:33:37;17.38;;;11.65;;
19946;SDS011;10135;50.702;7.276;2022-08-19T10:35:39;13.73;;;11.13;;
19946;SDS011;10135;50.702;7.276;2022-08-19T10:37:40;14.52;;;12.30;;
19946;SDS011;10135;50.702;7.276;2022-08-19T10:39:40;15.20;;;12.82;;
19946;SDS011;10135;50.702;7.276;2022-08-19T10:41:41;15.80;;;11.65;;
19946;SDS011;10135;50.702;7.276;2022-08-19T10:43:43;14.82;;;12.52;;
19946;SDS011;10135;50.702;7.276;2022-08-19T10:45:51;14.98;;;11.45;;
19946;SDS011;10135;50.702;7.276;2022-08-19T10:47:55;17.55;;;12.75;;
19946;SDS011;10135;50.702;7.276;2022-08-19T10:49:56;16.33;;;12.27;;
19946;SDS011;10135;50.702;7.276;2022-08-19T10:52:15;15.63;;;11.52;;
19946;SDS011;10135;50.702;7.276;2022-08-19T10:54:34;16.17;;;12.18;;
19946;SDS011;10135;50.702;7.276;2022-08-19T10:56:53;13.98;;;11.40;;
19946;SDS011;10135;50.702;7.276;2022-08-19T10:58:55;13.70;;;11.25;;
19946;SDS011;10135;50.702;7.276;2022-08-19T11:00:57;14.07;;;11.07;;
19946;SDS011;10135;50.702;7.276;2022-08-19T11:02:59;13.77;;;11.52;;
19946;SDS011;10135;50.702;7.276;2022-08-19T11:04:59;13.00;;;10.25;;
19946;SDS011;10135;50.702;7.276;2022-08-19T11:07:00;13.40;;;11.27;;
19946;SDS011;10135;50.702;7.276;2022-08-19T11:09:02;16.00;;;12.00;;
19946;SDS011;10135;50.702;7.276;2022-08-19T11:11:05;14.98;;;12.90;;
19946;SDS011;10135;50.702;7.276;2022-08-19T11:13:07;15.60;;;11.48;;
19946;SDS011;10135;50.702;7.276;2022-08-19T11:15:08;15.40;;;12.70;;
19946;SDS011;10135;50.702;7.276;2022-08-19T11:17:10;13.40;;;11.20;;
19946;SDS011;10135;50.702;7.276;2022-08-19T11:19:13;15.15;;;12.02;;
19946;SDS011;10135;50.702;7.276;2022-08-19T11:21:24;13.23;;;11.25;;
19946;SDS011;10135;50.702;7.276;2022-08-19T11:23:32;15.02;;;12.25;;
19946;SDS011;10135;50.702;7.276;2022-08-19T11:25:32;18.83;;;12.07;;
19946;SDS011;10135;50.702;7.276;2022-08-19T11:27:37;13.00;;;11.63;;
19946;SDS011;10135;50.702;7.276;2022-08-19T11:29:42;12.85;;;10.13;;
19946;SDS011;10135;50.702;7.276;2022-08-19T11:31:45;11.60;;;9.98;;
19946;SDS011;10135;50.702;7.276;2022-08-19T11:33:49;12.05;;;10.85;;
19946;SDS011;10135;50.702;7.276;2022-08-19T11:35:53;11.70;;;10.50;;
19946;SDS011;10135;50.702;7.276;2022-08-19T11:37:54;11.25;;;10.13;;
19946;SDS011;10135;50.702;7.276;2022-08-19T11:39:56;11.73;;;10.48;;
19946;SDS011;10135;50.702;7.276;2022-08-19T11:41:59;14.63;;;11.70;;
19946;SDS011;10135;50.702;7.276;2022-08-19T11:44:21;14.43;;;11.18;;
19946;SDS011;10135;50.702;7.276;2022-08-19T11:46:22;11.77;;;10.52;;
19946;SDS011;10135;50.702;7.276;2022-08-19T11:48:29;11.55;;;10.35;;
19946;SDS011;10135;50.702;7.276;2022-08-19T11:50:29;12.18;;;10.88;;
19946;SDS011;10135;50.702;7.276;2022-08-19T11:52:30;12.43;;;10.20;;
19946;SDS011;10135;50.702;7.276;2022-08-19T11:54:31;11.95;;;10.60;;
19946;SDS011;10135;50.702;7.276;2022-08-19T11:56:32;12.32;;;10.70;;
19946;SDS011;10135;50.702;7.276;2022-08-19T11:58:33;12.43;;;10.82;;
19946;SDS011;10135;50.702;7.276;2022-08-19T12:00:34;11.15;;;10.05;;
19946;SDS011;10135;50.702;7.276;2022-08-19T12:02:36;10.82;;;9.30;;
19946;SDS011;10135;50.702;7.276;2022-08-19T12:04:37;10.93;;;9.27;;
19946;SDS011;10135;50.702;7.276;2022-08-19T12:06:39;11.77;;;10.02;;
19946;SDS011;10135;50.702;7.276;2022-08-19T12:08:41;11.52;;;9.68;;
19946;SDS011;10135;50.702;7.276;2022-08-19T12:10:43;10.90;;;9.52;;
19946;SDS011;10135;50.702;7.276;2022-08-19T12:12:48;12.50;;;9.90;;
19946;SDS011;10135;50.702;7.276;2022-08-19T12:14:48;10.50;;;9.38;;
19946;SDS011;10135;50.702;7.276;2022-08-19T12:16:50;9.43;;;8.30;;